メインページ
METAR-TAF:

METAR-TAF

空港 :

ニューヨーク / ラガーディア, ニューヨーク, アメリカ合衆国

ラガーディア空港

緯度: 40-46-45N, 経度: 073-52-48W, 海抜: 6m

現時点の気象観測

当レポートは11分前の11:51(UTC)に作成
南/南西の風 8kt
気温 4°C
湿度 56%
気圧 1032 hPa
視程: 16.1km
高度11000ftの千切れ雲あり
高度25000ftの千切れ雲あり

METAR: KLGA 241151Z 21008KT 10SM BKN110 BKN250 04/M04 A3047 RMK AO2 SLP318 T00391039 10044 20033 58002

時間: 08:02 (12:02 UTC)

予報

当レポートは42分前の11:20(UTC)に作成
予報は24日の 12時(UTC)から 25日の 12時(UTC)まで有効
南西の風 7kt
視程: 10km
高度12000ftの雲は散在している
高度20000ftの千切れ雲あり
24日の 1400時(UTC)から
南/南西の風 13kt、最大18ktの突風を伴う
視程: 10km
高度8000ftの曇り
24日の 16時(UTC)から 24日の 18時(UTC)まで一時的に
視程: 9.7km
高度4000ftの千切れ雲あり
小雨
24日の 1900時(UTC)から
南/南西の風 13kt、最大20ktの突風を伴う
視程: 10km
高度4000ftの千切れ雲あり
24日の 2300時(UTC)から
南西の風 10kt
視程: 10km
高度4000ftの千切れ雲あり
25日の 0300時(UTC)から
南西の風 8kt
視程: 10km
高度4000ftの雲は散在している
高度8000ftの千切れ雲あり

TAF: KLGA 241120Z 2412/2512 22007KT P6SM SCT120 BKN200 FM241400 20013G18KT P6SM OVC080 TEMPO 2416/2418 6SM -RA BKN040 FM241900 21013G20KT P6SM BKN040 FM242300 23010KT P6SM BKN040 FM250300 23008KT P6SM SCT040 BKN080

4,000以上の空港の気象観測と天気予報(METAR報とTAF報)

利用可能な観測所は地図上に黄色い丸と赤い丸で示す。

丸の上にカーソルを重ねると観測所名を参照できる。

次にクリックすると気象観測と天気予報を参照できる。

マップの切り替え:黒色「×」印の緑ボタンをクリックして拡大、「-」印の緑ボタンをクリックして縮小、緑色の三角印をクリックして隣りの地図に切り替え


METAR-TAF: